Terminal Aerodrome Forecast
Issued by NWS

Home | Current Version | Previous Version | Graphics & Text | Print | Product List | Glossary On
Versions: 1 2 3 4 5 6 7 8 9 10 11 12 13 14 15 16 17 18 19 20 21 22 23 24
000
FTUS43 KABR 211230 AAA
TAFPIR
TAF AMD
KPIR 211230Z 2113/2212 14011KT P6SM SCT100
     FM211700 36008KT P6SM FEW250
     FM220600 05007KT P6SM SCT200
     FM221100 04006KT P6SM BKN110=

USA.gov is the U.S. government's official web portal to all federal, state and local government web resources and services.